sensor_id;sensor_type;location;lat;lon;timestamp;pressure;altitude;pressure_sealevel;temperature;humidity
25869;BME280;13688;53.154;18.136;2024-02-26T00:03:45;99899.56;;;2.27;100.00
25869;BME280;13688;53.154;18.136;2024-02-26T00:09:09;99900.17;;;2.16;100.00
25869;BME280;13688;53.154;18.136;2024-02-26T00:14:32;99900.34;;;1.97;100.00
25869;BME280;13688;53.154;18.136;2024-02-26T00:19:56;99899.02;;;1.73;100.00
25869;BME280;13688;53.154;18.136;2024-02-26T00:25:19;99898.52;;;1.66;100.00
25869;BME280;13688;53.154;18.136;2024-02-26T00:30:42;99903.10;;;1.47;100.00
25869;BME280;13688;53.154;18.136;2024-02-26T00:36:06;99901.08;;;1.35;100.00
25869;BME280;13688;53.154;18.136;2024-02-26T00:41:29;99896.70;;;1.18;100.00
25869;BME280;13688;53.154;18.136;2024-02-26T00:46:54;99885.64;;;1.10;100.00
25869;BME280;13688;53.154;18.136;2024-02-26T00:52:17;99886.70;;;1.23;100.00
25869;BME280;13688;53.154;18.136;2024-02-26T00:57:39;99881.66;;;1.19;100.00
25869;BME280;13688;53.154;18.136;2024-02-26T01:03:02;99877.33;;;1.00;100.00
25869;BME280;13688;53.154;18.136;2024-02-26T01:08:25;99883.17;;;0.90;100.00
25869;BME280;13688;53.154;18.136;2024-02-26T01:13:48;99893.67;;;0.74;100.00
25869;BME280;13688;53.154;18.136;2024-02-26T01:19:10;99895.23;;;0.61;100.00
25869;BME280;13688;53.154;18.136;2024-02-26T01:24:33;99892.67;;;0.59;100.00
25869;BME280;13688;53.154;18.136;2024-02-26T01:29:55;99889.78;;;0.64;100.00
25869;BME280;13688;53.154;18.136;2024-02-26T01:35:20;99895.38;;;0.75;100.00
25869;BME280;13688;53.154;18.136;2024-02-26T01:40:43;99887.28;;;0.95;100.00
25869;BME280;13688;53.154;18.136;2024-02-26T01:46:05;99885.56;;;1.11;100.00
25869;BME280;13688;53.154;18.136;2024-02-26T01:51:29;99895.67;;;1.21;100.00
25869;BME280;13688;53.154;18.136;2024-02-26T01:56:55;99900.66;;;1.27;100.00
25869;BME280;13688;53.154;18.136;2024-02-26T02:02:18;99898.06;;;1.25;100.00
25869;BME280;13688;53.154;18.136;2024-02-26T02:07:42;99900.67;;;1.09;100.00
25869;BME280;13688;53.154;18.136;2024-02-26T02:13:06;99905.80;;;1.12;100.00
25869;BME280;13688;53.154;18.136;2024-02-26T02:18:28;99904.77;;;1.15;100.00
25869;BME280;13688;53.154;18.136;2024-02-26T02:23:51;99904.39;;;1.05;100.00
25869;BME280;13688;53.154;18.136;2024-02-26T02:29:14;99899.91;;;0.90;100.00
25869;BME280;13688;53.154;18.136;2024-02-26T02:34:37;99901.53;;;0.75;100.00
25869;BME280;13688;53.154;18.136;2024-02-26T02:40:01;99888.77;;;0.66;100.00
25869;BME280;13688;53.154;18.136;2024-02-26T02:45:24;99893.66;;;0.56;100.00
25869;BME280;13688;53.154;18.136;2024-02-26T02:50:46;99908.46;;;0.61;100.00
25869;BME280;13688;53.154;18.136;2024-02-26T02:56:09;99903.30;;;0.57;100.00
25869;BME280;13688;53.154;18.136;2024-02-26T03:01:31;99905.14;;;0.38;100.00
25869;BME280;13688;53.154;18.136;2024-02-26T03:06:54;99911.53;;;0.34;100.00
25869;BME280;13688;53.154;18.136;2024-02-26T03:12:17;99909.13;;;0.30;100.00
25869;BME280;13688;53.154;18.136;2024-02-26T03:17:40;99913.59;;;0.27;100.00
25869;BME280;13688;53.154;18.136;2024-02-26T03:23:03;99913.42;;;0.13;100.00
25869;BME280;13688;53.154;18.136;2024-02-26T03:28:27;99911.42;;;-0.01;100.00
25869;BME280;13688;53.154;18.136;2024-02-26T03:33:49;99917.02;;;-0.07;100.00
25869;BME280;13688;53.154;18.136;2024-02-26T03:39:12;99906.56;;;-0.10;100.00
25869;BME280;13688;53.154;18.136;2024-02-26T03:44:35;99915.30;;;-0.08;100.00
25869;BME280;13688;53.154;18.136;2024-02-26T03:49:57;99918.64;;;-0.04;100.00
25869;BME280;13688;53.154;18.136;2024-02-26T03:55:20;99915.41;;;0.08;100.00
25869;BME280;13688;53.154;18.136;2024-02-26T04:00:43;99919.64;;;0.12;100.00
25869;BME280;13688;53.154;18.136;2024-02-26T04:06:08;99919.33;;;0.18;100.00
25869;BME280;13688;53.154;18.136;2024-02-26T04:11:31;99918.11;;;0.25;100.00
25869;BME280;13688;53.154;18.136;2024-02-26T04:16:53;99912.09;;;0.41;100.00
25869;BME280;13688;53.154;18.136;2024-02-26T04:22:16;99911.08;;;0.43;100.00
25869;BME280;13688;53.154;18.136;2024-02-26T04:27:39;99910.55;;;0.54;100.00
25869;BME280;13688;53.154;18.136;2024-02-26T04:33:01;99915.30;;;0.65;100.00
25869;BME280;13688;53.154;18.136;2024-02-26T04:38:24;99915.94;;;0.70;100.00
25869;BME280;13688;53.154;18.136;2024-02-26T04:43:46;99914.67;;;0.77;100.00
25869;BME280;13688;53.154;18.136;2024-02-26T04:49:09;99917.96;;;0.82;100.00
25869;BME280;13688;53.154;18.136;2024-02-26T04:54:31;99909.55;;;0.74;100.00
25869;BME280;13688;53.154;18.136;2024-02-26T04:59:54;99918.80;;;0.65;100.00
25869;BME280;13688;53.154;18.136;2024-02-26T05:05:17;99922.84;;;0.55;100.00
25869;BME280;13688;53.154;18.136;2024-02-26T05:10:40;99927.02;;;0.42;100.00
25869;BME280;13688;53.154;18.136;2024-02-26T05:16:02;99939.44;;;0.04;100.00
25869;BME280;13688;53.154;18.136;2024-02-26T05:21:25;99944.91;;;-0.20;100.00
25869;BME280;13688;53.154;18.136;2024-02-26T05:26:47;99960.64;;;-0.17;100.00
25869;BME280;13688;53.154;18.136;2024-02-26T05:32:11;99957.27;;;-0.20;100.00
25869;BME280;13688;53.154;18.136;2024-02-26T05:37:33;99969.62;;;-0.21;100.00
25869;BME280;13688;53.154;18.136;2024-02-26T05:42:56;99967.61;;;-0.35;100.00
25869;BME280;13688;53.154;18.136;2024-02-26T05:48:19;99976.70;;;-0.81;100.00
25869;BME280;13688;53.154;18.136;2024-02-26T05:53:42;99974.12;;;-0.82;100.00
25869;BME280;13688;53.154;18.136;2024-02-26T05:59:04;99977.55;;;-0.80;100.00
25869;BME280;13688;53.154;18.136;2024-02-26T06:04:27;99996.17;;;-0.83;100.00
25869;BME280;13688;53.154;18.136;2024-02-26T06:09:50;99997.20;;;-0.88;100.00
25869;BME280;13688;53.154;18.136;2024-02-26T06:15:14;99998.02;;;-0.85;100.00
25869;BME280;13688;53.154;18.136;2024-02-26T06:20:37;99995.77;;;-0.74;100.00
25869;BME280;13688;53.154;18.136;2024-02-26T06:25:59;99997.88;;;-0.62;100.00
25869;BME280;13688;53.154;18.136;2024-02-26T06:31:22;99998.59;;;-0.59;100.00
25869;BME280;13688;53.154;18.136;2024-02-26T06:36:45;100004.14;;;-0.44;100.00
25869;BME280;13688;53.154;18.136;2024-02-26T06:42:08;100007.31;;;-0.36;100.00
25869;BME280;13688;53.154;18.136;2024-02-26T06:47:30;100012.66;;;-0.38;100.00
25869;BME280;13688;53.154;18.136;2024-02-26T06:52:53;100015.46;;;-0.22;100.00
25869;BME280;13688;53.154;18.136;2024-02-26T06:58:17;100021.27;;;-0.14;100.00
25869;BME280;13688;53.154;18.136;2024-02-26T07:03:40;100016.91;;;-0.15;100.00
25869;BME280;13688;53.154;18.136;2024-02-26T07:09:03;100016.69;;;-0.10;100.00
25869;BME280;13688;53.154;18.136;2024-02-26T07:14:26;100030.34;;;-0.01;100.00
25869;BME280;13688;53.154;18.136;2024-02-26T07:19:48;100027.50;;;0.04;100.00
25869;BME280;13688;53.154;18.136;2024-02-26T07:25:12;100027.23;;;0.10;100.00
25869;BME280;13688;53.154;18.136;2024-02-26T07:30:35;100030.01;;;0.26;100.00
25869;BME280;13688;53.154;18.136;2024-02-26T07:35:58;100036.15;;;0.45;100.00
25869;BME280;13688;53.154;18.136;2024-02-26T07:41:20;100039.95;;;0.59;100.00
25869;BME280;13688;53.154;18.136;2024-02-26T07:46:43;100038.84;;;0.81;100.00
25869;BME280;13688;53.154;18.136;2024-02-26T07:52:05;100046.09;;;0.95;100.00
25869;BME280;13688;53.154;18.136;2024-02-26T07:57:28;100053.45;;;1.07;100.00
25869;BME280;13688;53.154;18.136;2024-02-26T08:02:50;100060.70;;;1.21;100.00
25869;BME280;13688;53.154;18.136;2024-02-26T08:08:13;100060.80;;;1.37;100.00
25869;BME280;13688;53.154;18.136;2024-02-26T08:13:36;100065.77;;;1.60;100.00
25869;BME280;13688;53.154;18.136;2024-02-26T08:18:59;100064.98;;;1.76;100.00
25869;BME280;13688;53.154;18.136;2024-02-26T08:24:23;100072.50;;;2.00;100.00
25869;BME280;13688;53.154;18.136;2024-02-26T08:29:46;100077.28;;;2.27;100.00
25869;BME280;13688;53.154;18.136;2024-02-26T08:35:08;100062.69;;;2.51;100.00
25869;BME280;13688;53.154;18.136;2024-02-26T08:40:32;100065.43;;;2.81;100.00
25869;BME280;13688;53.154;18.136;2024-02-26T08:45:54;100068.14;;;3.11;100.00
25869;BME280;13688;53.154;18.136;2024-02-26T08:51:16;100072.88;;;3.36;100.00
25869;BME280;13688;53.154;18.136;2024-02-26T08:56:39;100074.14;;;3.45;100.00
25869;BME280;13688;53.154;18.136;2024-02-26T09:02:02;100082.58;;;3.67;100.00
25869;BME280;13688;53.154;18.136;2024-02-26T09:07:25;100087.52;;;3.73;100.00
25869;BME280;13688;53.154;18.136;2024-02-26T09:12:47;100084.00;;;3.73;100.00
25869;BME280;13688;53.154;18.136;2024-02-26T09:18:11;100089.72;;;3.81;100.00
25869;BME280;13688;53.154;18.136;2024-02-26T09:23:33;100101.42;;;3.93;100.00
25869;BME280;13688;53.154;18.136;2024-02-26T09:28:56;100103.72;;;3.99;100.00
25869;BME280;13688;53.154;18.136;2024-02-26T09:34:18;100107.73;;;4.06;100.00
25869;BME280;13688;53.154;18.136;2024-02-26T09:39:41;100111.05;;;4.10;100.00
25869;BME280;13688;53.154;18.136;2024-02-26T09:45:06;100107.64;;;4.50;100.00
25869;BME280;13688;53.154;18.136;2024-02-26T09:50:32;100109.75;;;5.01;100.00
25869;BME280;13688;53.154;18.136;2024-02-26T09:55:55;100108.20;;;5.38;100.00
25869;BME280;13688;53.154;18.136;2024-02-26T10:01:20;100127.94;;;5.35;100.00
25869;BME280;13688;53.154;18.136;2024-02-26T10:06:45;100120.08;;;5.46;100.00
25869;BME280;13688;53.154;18.136;2024-02-26T10:12:11;100124.43;;;5.74;100.00
25869;BME280;13688;53.154;18.136;2024-02-26T10:17:34;100125.48;;;6.12;100.00
25869;BME280;13688;53.154;18.136;2024-02-26T10:22:56;100111.91;;;6.53;100.00
25869;BME280;13688;53.154;18.136;2024-02-26T10:28:20;100101.39;;;6.88;100.00
25869;BME280;13688;53.154;18.136;2024-02-26T10:33:43;100092.89;;;7.07;100.00
25869;BME280;13688;53.154;18.136;2024-02-26T10:39:14;100077.36;;;7.36;100.00
25869;BME280;13688;53.154;18.136;2024-02-26T10:44:36;100057.05;;;7.68;100.00
25869;BME280;13688;53.154;18.136;2024-02-26T10:50:02;100052.02;;;8.10;100.00
25869;BME280;13688;53.154;18.136;2024-02-26T10:55:28;100047.77;;;8.86;100.00
25869;BME280;13688;53.154;18.136;2024-02-26T11:00:51;100050.09;;;8.91;100.00
25869;BME280;13688;53.154;18.136;2024-02-26T11:06:15;100055.86;;;8.64;100.00
25869;BME280;13688;53.154;18.136;2024-02-26T11:11:40;100064.02;;;8.62;100.00
25869;BME280;13688;53.154;18.136;2024-02-26T11:17:07;100075.73;;;9.27;100.00
25869;BME280;13688;53.154;18.136;2024-02-26T11:22:31;100083.43;;;10.05;100.00
25869;BME280;13688;53.154;18.136;2024-02-26T11:28:04;100085.09;;;10.78;100.00
25869;BME280;13688;53.154;18.136;2024-02-26T11:33:30;100100.97;;;10.81;100.00
25869;BME280;13688;53.154;18.136;2024-02-26T11:38:55;100089.70;;;11.07;100.00
25869;BME280;13688;53.154;18.136;2024-02-26T11:44:28;100094.45;;;11.43;100.00
25869;BME280;13688;53.154;18.136;2024-02-26T11:49:56;100108.22;;;11.50;100.00
25869;BME280;13688;53.154;18.136;2024-02-26T11:55:31;100111.10;;;11.87;100.00
25869;BME280;13688;53.154;18.136;2024-02-26T12:00:48;100102.69;;;12.19;100.00
25869;BME280;13688;53.154;18.136;2024-02-26T12:06:12;100102.89;;;12.55;100.00
25869;BME280;13688;53.154;18.136;2024-02-26T12:11:39;100107.25;;;12.93;100.00
25869;BME280;13688;53.154;18.136;2024-02-26T12:17:03;100105.23;;;13.05;100.00
25869;BME280;13688;53.154;18.136;2024-02-26T12:22:27;100107.06;;;12.77;100.00
25869;BME280;13688;53.154;18.136;2024-02-26T12:27:50;100100.75;;;13.23;100.00
25869;BME280;13688;53.154;18.136;2024-02-26T12:33:14;100106.66;;;13.72;100.00
25869;BME280;13688;53.154;18.136;2024-02-26T12:38:39;100105.94;;;14.06;100.00
25869;BME280;13688;53.154;18.136;2024-02-26T12:44:03;100099.17;;;13.84;100.00
25869;BME280;13688;53.154;18.136;2024-02-26T12:49:25;100101.76;;;13.40;100.00
25869;BME280;13688;53.154;18.136;2024-02-26T12:54:50;100089.95;;;13.23;100.00
25869;BME280;13688;53.154;18.136;2024-02-26T13:00:15;100092.03;;;13.29;100.00
25869;BME280;13688;53.154;18.136;2024-02-26T13:05:40;100088.34;;;13.48;100.00
25869;BME280;13688;53.154;18.136;2024-02-26T13:11:05;100082.19;;;13.73;100.00
25869;BME280;13688;53.154;18.136;2024-02-26T13:16:30;100091.64;;;14.13;100.00
25869;BME280;13688;53.154;18.136;2024-02-26T13:21:52;100088.73;;;14.32;100.00
25869;BME280;13688;53.154;18.136;2024-02-26T13:27:24;100081.28;;;14.09;100.00
25869;BME280;13688;53.154;18.136;2024-02-26T13:32:47;100081.28;;;14.09;100.00
25869;BME280;13688;53.154;18.136;2024-02-26T13:38:11;100086.39;;;14.12;100.00
25869;BME280;13688;53.154;18.136;2024-02-26T13:43:38;100091.22;;;14.26;100.00
25869;BME280;13688;53.154;18.136;2024-02-26T13:49:01;100090.63;;;14.14;100.00
25869;BME280;13688;53.154;18.136;2024-02-26T13:54:25;100096.52;;;14.10;100.00
25869;BME280;13688;53.154;18.136;2024-02-26T13:59:50;100089.19;;;14.02;100.00
25869;BME280;13688;53.154;18.136;2024-02-26T14:05:14;100091.75;;;13.86;100.00
25869;BME280;13688;53.154;18.136;2024-02-26T14:10:37;100098.64;;;13.62;100.00
25869;BME280;13688;53.154;18.136;2024-02-26T14:16:00;100097.93;;;13.42;100.00
25869;BME280;13688;53.154;18.136;2024-02-26T14:21:24;100098.88;;;12.96;100.00
25869;BME280;13688;53.154;18.136;2024-02-26T14:26:47;100098.00;;;12.68;100.00
25869;BME280;13688;53.154;18.136;2024-02-26T14:32:10;100099.49;;;12.43;100.00
25869;BME280;13688;53.154;18.136;2024-02-26T14:37:33;100097.16;;;12.11;100.00
25869;BME280;13688;53.154;18.136;2024-02-26T14:43:00;100100.33;;;11.87;100.00
25869;BME280;13688;53.154;18.136;2024-02-26T14:48:23;100101.41;;;11.65;100.00
25869;BME280;13688;53.154;18.136;2024-02-26T14:53:46;100101.24;;;11.47;100.00
25869;BME280;13688;53.154;18.136;2024-02-26T14:59:11;100109.29;;;11.28;100.00
25869;BME280;13688;53.154;18.136;2024-02-26T15:04:35;100104.46;;;11.12;100.00
25869;BME280;13688;53.154;18.136;2024-02-26T15:09:58;100110.34;;;10.97;100.00
25869;BME280;13688;53.154;18.136;2024-02-26T15:15:21;100112.69;;;10.80;100.00
25869;BME280;13688;53.154;18.136;2024-02-26T15:20:44;100116.03;;;10.63;100.00
25869;BME280;13688;53.154;18.136;2024-02-26T15:26:08;100118.92;;;10.50;100.00
25869;BME280;13688;53.154;18.136;2024-02-26T15:31:32;100124.93;;;10.33;100.00
25869;BME280;13688;53.154;18.136;2024-02-26T15:36:54;100132.55;;;10.17;100.00
25869;BME280;13688;53.154;18.136;2024-02-26T15:42:19;100131.44;;;9.98;100.00
25869;BME280;13688;53.154;18.136;2024-02-26T15:47:42;100134.41;;;9.84;100.00
25869;BME280;13688;53.154;18.136;2024-02-26T15:53:05;100138.00;;;9.73;100.00
25869;BME280;13688;53.154;18.136;2024-02-26T15:58:27;100145.37;;;9.60;100.00
25869;BME280;13688;53.154;18.136;2024-02-26T16:03:50;100157.37;;;9.45;100.00
25869;BME280;13688;53.154;18.136;2024-02-26T16:09:13;100157.66;;;9.31;100.00
25869;BME280;13688;53.154;18.136;2024-02-26T16:14:46;100159.52;;;9.19;100.00
25869;BME280;13688;53.154;18.136;2024-02-26T16:20:09;100162.56;;;9.03;100.00
25869;BME280;13688;53.154;18.136;2024-02-26T16:25:38;100176.23;;;8.89;100.00
25869;BME280;13688;53.154;18.136;2024-02-26T16:31:02;100163.56;;;8.80;100.00
25869;BME280;13688;53.154;18.136;2024-02-26T16:36:24;100171.69;;;8.67;100.00
25869;BME280;13688;53.154;18.136;2024-02-26T16:41:47;100176.45;;;8.64;100.00
25869;BME280;13688;53.154;18.136;2024-02-26T16:47:12;100171.47;;;8.59;100.00
25869;BME280;13688;53.154;18.136;2024-02-26T16:52:35;100172.06;;;8.63;100.00
25869;BME280;13688;53.154;18.136;2024-02-26T16:58:01;100178.03;;;8.66;100.00
25869;BME280;13688;53.154;18.136;2024-02-26T17:03:25;100186.06;;;8.66;100.00
25869;BME280;13688;53.154;18.136;2024-02-26T17:08:48;100192.41;;;8.65;100.00
25869;BME280;13688;53.154;18.136;2024-02-26T17:14:13;100197.89;;;8.64;100.00
25869;BME280;13688;53.154;18.136;2024-02-26T17:19:41;100199.84;;;8.62;100.00
25869;BME280;13688;53.154;18.136;2024-02-26T17:25:04;100205.93;;;8.64;100.00
25869;BME280;13688;53.154;18.136;2024-02-26T17:30:28;100207.03;;;8.61;100.00
25869;BME280;13688;53.154;18.136;2024-02-26T17:35:51;100220.55;;;8.59;100.00
25869;BME280;13688;53.154;18.136;2024-02-26T17:41:15;100216.26;;;8.57;100.00
25869;BME280;13688;53.154;18.136;2024-02-26T17:46:38;100221.02;;;8.53;100.00
25869;BME280;13688;53.154;18.136;2024-02-26T17:52:01;100217.73;;;8.50;100.00
25869;BME280;13688;53.154;18.136;2024-02-26T17:57:23;100216.24;;;8.46;100.00
25869;BME280;13688;53.154;18.136;2024-02-26T18:02:47;100216.61;;;8.41;100.00
25869;BME280;13688;53.154;18.136;2024-02-26T18:08:21;100205.65;;;8.44;100.00
25869;BME280;13688;53.154;18.136;2024-02-26T18:13:44;100208.61;;;8.28;100.00
25869;BME280;13688;53.154;18.136;2024-02-26T18:19:07;100218.71;;;8.25;100.00
25869;BME280;13688;53.154;18.136;2024-02-26T18:24:30;100216.40;;;8.20;100.00
25869;BME280;13688;53.154;18.136;2024-02-26T18:29:53;100231.94;;;8.15;100.00
25869;BME280;13688;53.154;18.136;2024-02-26T18:35:16;100227.89;;;8.10;100.00
25869;BME280;13688;53.154;18.136;2024-02-26T18:40:39;100232.75;;;8.04;100.00
25869;BME280;13688;53.154;18.136;2024-02-26T18:46:02;100238.44;;;8.00;100.00
25869;BME280;13688;53.154;18.136;2024-02-26T18:51:26;100236.73;;;7.99;100.00
25869;BME280;13688;53.154;18.136;2024-02-26T18:56:48;100248.30;;;7.99;100.00
25869;BME280;13688;53.154;18.136;2024-02-26T19:02:11;100243.18;;;7.96;100.00
25869;BME280;13688;53.154;18.136;2024-02-26T19:07:36;100256.80;;;7.93;100.00
25869;BME280;13688;53.154;18.136;2024-02-26T19:13:00;100261.42;;;7.91;100.00
25869;BME280;13688;53.154;18.136;2024-02-26T19:18:23;100273.06;;;7.90;100.00
25869;BME280;13688;53.154;18.136;2024-02-26T19:23:48;100268.69;;;7.89;100.00
25869;BME280;13688;53.154;18.136;2024-02-26T19:29:13;100277.69;;;7.88;100.00
25869;BME280;13688;53.154;18.136;2024-02-26T19:34:35;100282.30;;;7.86;100.00
25869;BME280;13688;53.154;18.136;2024-02-26T19:39:58;100276.33;;;7.83;100.00
25869;BME280;13688;53.154;18.136;2024-02-26T19:45:21;100279.09;;;7.81;100.00
25869;BME280;13688;53.154;18.136;2024-02-26T19:50:44;100281.16;;;7.78;100.00
25869;BME280;13688;53.154;18.136;2024-02-26T19:56:07;100275.18;;;7.74;100.00
25869;BME280;13688;53.154;18.136;2024-02-26T20:01:31;100276.36;;;7.70;100.00
25869;BME280;13688;53.154;18.136;2024-02-26T20:06:54;100275.62;;;7.68;100.00
25869;BME280;13688;53.154;18.136;2024-02-26T20:12:16;100265.88;;;7.67;100.00
25869;BME280;13688;53.154;18.136;2024-02-26T20:17:39;100271.47;;;7.64;100.00
25869;BME280;13688;53.154;18.136;2024-02-26T20:23:02;100273.61;;;7.59;100.00
25869;BME280;13688;53.154;18.136;2024-02-26T20:28:24;100272.88;;;7.57;100.00
25869;BME280;13688;53.154;18.136;2024-02-26T20:33:47;100275.86;;;7.52;100.00
25869;BME280;13688;53.154;18.136;2024-02-26T20:39:11;100285.83;;;7.50;100.00
25869;BME280;13688;53.154;18.136;2024-02-26T20:44:36;100285.31;;;7.45;100.00
25869;BME280;13688;53.154;18.136;2024-02-26T20:49:58;100288.96;;;7.44;100.00
25869;BME280;13688;53.154;18.136;2024-02-26T20:55:22;100297.30;;;7.39;100.00
25869;BME280;13688;53.154;18.136;2024-02-26T21:00:44;100296.67;;;7.36;100.00
25869;BME280;13688;53.154;18.136;2024-02-26T21:06:07;100296.02;;;7.32;100.00
25869;BME280;13688;53.154;18.136;2024-02-26T21:11:30;100298.17;;;7.27;100.00
25869;BME280;13688;53.154;18.136;2024-02-26T21:16:53;100289.61;;;7.22;100.00
25869;BME280;13688;53.154;18.136;2024-02-26T21:22:15;100290.80;;;7.18;100.00
25869;BME280;13688;53.154;18.136;2024-02-26T21:27:38;100286.61;;;7.14;100.00
25869;BME280;13688;53.154;18.136;2024-02-26T21:33:00;100298.39;;;7.11;100.00
25869;BME280;13688;53.154;18.136;2024-02-26T21:38:23;100290.70;;;7.07;100.00
25869;BME280;13688;53.154;18.136;2024-02-26T21:43:48;100294.53;;;7.03;100.00
25869;BME280;13688;53.154;18.136;2024-02-26T21:49:12;100302.03;;;6.98;100.00
25869;BME280;13688;53.154;18.136;2024-02-26T21:54:36;100296.03;;;6.94;100.00
25869;BME280;13688;53.154;18.136;2024-02-26T22:00:06;100308.65;;;6.92;100.00
25869;BME280;13688;53.154;18.136;2024-02-26T22:05:29;100313.36;;;6.88;100.00
25869;BME280;13688;53.154;18.136;2024-02-26T22:10:52;100302.89;;;6.85;100.00
25869;BME280;13688;53.154;18.136;2024-02-26T22:16:15;100301.37;;;6.81;100.00
25869;BME280;13688;53.154;18.136;2024-02-26T22:21:43;100306.20;;;6.76;100.00
25869;BME280;13688;53.154;18.136;2024-02-26T22:27:02;100315.25;;;6.74;100.00
25869;BME280;13688;53.154;18.136;2024-02-26T22:32:25;100306.83;;;6.67;100.00
25869;BME280;13688;53.154;18.136;2024-02-26T22:37:47;100313.98;;;6.67;100.00
25869;BME280;13688;53.154;18.136;2024-02-26T22:43:10;100313.31;;;6.63;100.00
25869;BME280;13688;53.154;18.136;2024-02-26T22:48:32;100316.31;;;6.58;100.00
25869;BME280;13688;53.154;18.136;2024-02-26T22:53:55;100315.57;;;6.56;100.00
25869;BME280;13688;53.154;18.136;2024-02-26T22:59:17;100322.91;;;6.53;100.00
25869;BME280;13688;53.154;18.136;2024-02-26T23:04:42;100328.25;;;6.53;100.00
25869;BME280;13688;53.154;18.136;2024-02-26T23:10:04;100331.03;;;6.51;100.00
25869;BME280;13688;53.154;18.136;2024-02-26T23:15:27;100330.40;;;6.48;100.00
25869;BME280;13688;53.154;18.136;2024-02-26T23:20:49;100338.41;;;6.48;100.00
25869;BME280;13688;53.154;18.136;2024-02-26T23:26:13;100353.87;;;6.43;100.00
25869;BME280;13688;53.154;18.136;2024-02-26T23:31:35;100353.23;;;6.39;100.00
25869;BME280;13688;53.154;18.136;2024-02-26T23:36:58;100359.60;;;6.37;100.00
25869;BME280;13688;53.154;18.136;2024-02-26T23:42:20;100354.47;;;6.34;100.00
25869;BME280;13688;53.154;18.136;2024-02-26T23:47:43;100354.47;;;6.34;100.00
25869;BME280;13688;53.154;18.136;2024-02-26T23:53:06;100359.06;;;6.31;100.00
25869;BME280;13688;53.154;18.136;2024-02-26T23:58:28;100364.80;;;6.25;100.00
